createdAt,value
2018-03-07T00:02:12.694Z,11.16
2018-03-07T00:04:41.377Z,11.08
2018-03-07T00:07:10.110Z,10.91
2018-03-07T00:09:39.561Z,11.53
2018-03-07T00:12:08.149Z,11.24
2018-03-07T00:14:37.112Z,10.68
2018-03-07T00:17:05.729Z,10.72
2018-03-07T00:19:34.304Z,11.06
2018-03-07T00:22:03.241Z,11.19
2018-03-07T00:24:32.763Z,11.68
2018-03-07T00:27:01.452Z,11.58
2018-03-07T00:29:30.195Z,11.45
2018-03-07T00:31:58.962Z,11.78
2018-03-07T00:34:27.648Z,13.10
2018-03-07T00:36:56.444Z,13.15
2018-03-07T00:39:25.087Z,13.27
2018-03-07T00:41:53.815Z,13.39
2018-03-07T00:44:22.699Z,13.55
2018-03-07T00:46:51.240Z,13.63
2018-03-07T00:49:19.972Z,13.48
2018-03-07T00:51:48.965Z,14.25
2018-03-07T00:54:17.651Z,13.35
2018-03-07T00:56:46.291Z,14.01
2018-03-07T00:59:15.121Z,13.20
2018-03-07T01:01:43.751Z,12.44
2018-03-07T01:04:13.216Z,13.21
2018-03-07T01:06:42.159Z,13.31
2018-03-07T01:09:11.610Z,13.66
2018-03-07T01:11:40.295Z,13.20
2018-03-07T01:14:09.189Z,11.87
2018-03-07T01:16:37.874Z,12.07
2018-03-07T01:19:06.560Z,12.36
2018-03-07T01:21:35.370Z,12.23
2018-03-07T01:24:04.088Z,12.23
2018-03-07T01:26:32.815Z,11.97
2018-03-07T01:29:02.001Z,11.78
2018-03-07T01:31:30.703Z,11.34
2018-03-07T01:33:59.389Z,11.27
2018-03-07T01:36:28.177Z,11.42
2018-03-07T01:38:56.819Z,11.41
2018-03-07T01:41:25.545Z,11.31
2018-03-07T01:43:54.152Z,11.52
2018-03-07T01:46:22.823Z,11.45
2018-03-07T01:48:51.383Z,11.88
2018-03-07T01:51:20.177Z,11.63
2018-03-07T01:53:48.875Z,11.71
2018-03-07T01:56:17.562Z,11.75
2018-03-07T01:58:46.557Z,11.73
2018-03-07T02:01:15.181Z,11.26
2018-03-07T02:03:44.639Z,10.76
2018-03-07T02:06:13.337Z,10.95
2018-03-07T02:08:42.010Z,11.00
2018-03-07T02:11:10.697Z,11.43
2018-03-07T02:13:39.288Z,11.47
2018-03-07T02:16:07.911Z,11.24
2018-03-07T02:18:37.368Z,11.17
2018-03-07T02:21:06.197Z,10.73
2018-03-07T02:23:35.620Z,11.01
2018-03-07T02:26:04.350Z,11.53
2018-03-07T02:28:33.341Z,12.06
2018-03-07T02:31:01.927Z,12.07
2018-03-07T02:33:30.615Z,12.24
2018-03-07T02:35:59.305Z,12.42
2018-03-07T02:38:27.986Z,12.71
2018-03-07T02:40:57.408Z,12.63
2018-03-07T02:43:26.377Z,12.54
2018-03-07T02:45:54.963Z,12.87
2018-03-07T02:48:23.652Z,13.11
2018-03-07T02:50:52.644Z,13.19
2018-03-07T02:53:21.330Z,13.21
2018-03-07T02:55:49.996Z,13.43
2018-03-07T02:58:18.992Z,13.69
2018-03-07T03:00:48.509Z,13.39
2018-03-07T03:03:17.094Z,13.23
2018-03-07T03:05:45.880Z,13.71
2018-03-07T03:08:14.464Z,13.63
2018-03-07T03:10:43.052Z,13.40
2018-03-07T03:13:11.836Z,13.58
2018-03-07T03:15:40.522Z,13.70
2018-03-07T03:18:09.155Z,13.74
2018-03-07T03:20:38.773Z,14.01
2018-03-07T03:23:07.417Z,14.04
2018-03-07T03:25:36.187Z,14.05
2018-03-07T03:28:04.924Z,14.65
2018-03-07T03:30:34.387Z,14.21
2018-03-07T03:33:03.062Z,14.32
2018-03-07T03:35:32.006Z,14.33
2018-03-07T03:38:01.460Z,14.20
2018-03-07T03:40:30.093Z,14.39
2018-03-07T03:42:59.710Z,14.13
2018-03-07T03:45:28.438Z,14.46
2018-03-07T03:47:57.071Z,14.92
2018-03-07T03:50:26.687Z,14.43
2018-03-07T03:52:55.418Z,14.30
2018-03-07T03:55:24.050Z,14.60
2018-03-07T03:57:53.716Z,14.03
2018-03-07T04:00:22.359Z,14.31
2018-03-07T04:02:50.945Z,14.19
2018-03-07T04:05:20.038Z,14.05
2018-03-07T04:07:48.723Z,13.80
2018-03-07T04:10:17.309Z,14.03
2018-03-07T04:12:46.049Z,14.46
2018-03-07T04:15:14.782Z,14.71
2018-03-07T04:17:43.435Z,13.89
2018-03-07T04:20:15.225Z,14.11
2018-03-07T04:22:43.812Z,14.52
2018-03-07T04:25:12.498Z,14.75
2018-03-07T04:27:41.231Z,14.91
2018-03-07T04:30:10.692Z,15.05
2018-03-07T04:32:39.314Z,15.04
2018-03-07T04:35:08.787Z,15.21
2018-03-07T04:37:37.346Z,14.82
2018-03-07T04:40:06.051Z,14.53
2018-03-07T04:42:34.836Z,15.08
2018-03-07T04:45:03.521Z,14.43
2018-03-07T04:47:32.150Z,14.39
2018-03-07T04:50:01.615Z,14.84
2018-03-07T04:52:30.298Z,14.14
2018-03-07T04:54:58.979Z,13.84
2018-03-07T04:57:27.772Z,14.10
2018-03-07T04:59:56.411Z,14.47
2018-03-07T05:02:26.207Z,13.95
2018-03-07T05:04:55.673Z,13.50
2018-03-07T05:07:24.339Z,14.11
2018-03-07T05:09:53.038Z,14.23
2018-03-07T05:12:21.928Z,14.11
2018-03-07T05:14:50.572Z,14.20
2018-03-07T05:17:19.301Z,13.71
2018-03-07T05:19:48.483Z,13.89
2018-03-07T05:22:17.088Z,14.04
2018-03-07T05:24:45.874Z,14.03
2018-03-07T05:27:15.009Z,13.86
2018-03-07T05:29:44.270Z,14.41
2018-03-07T05:32:14.021Z,14.53
2018-03-07T05:34:43.883Z,14.71
2018-03-07T05:37:14.972Z,14.78
2018-03-07T05:39:43.720Z,14.84
2018-03-07T05:42:12.418Z,14.61
2018-03-07T05:44:41.218Z,14.46
2018-03-07T05:47:10.688Z,14.23
2018-03-07T05:49:39.490Z,13.92
2018-03-07T05:52:08.183Z,14.09
2018-03-07T05:54:36.862Z,14.48
2018-03-07T05:57:05.800Z,14.49
2018-03-07T05:59:35.109Z,14.12
2018-03-07T06:02:03.742Z,14.19
2018-03-07T06:04:32.626Z,14.19
2018-03-07T06:07:01.217Z,14.43
2018-03-07T06:09:29.783Z,14.61
2018-03-07T06:11:58.893Z,14.80
2018-03-07T06:14:27.956Z,14.65
2018-03-07T06:16:56.619Z,13.99
2018-03-07T06:19:26.280Z,14.20
2018-03-07T06:21:54.824Z,14.75
2018-03-07T06:24:23.550Z,15.07
2018-03-07T06:26:52.239Z,14.67
2018-03-07T06:29:20.822Z,14.79
2018-03-07T06:31:49.472Z,14.43
2018-03-07T06:34:18.343Z,14.48
2018-03-07T06:36:47.802Z,13.93
2018-03-07T06:39:16.488Z,14.40
2018-03-07T06:41:45.273Z,13.81
2018-03-07T06:44:13.958Z,13.75
2018-03-07T06:46:42.582Z,14.67
2018-03-07T06:49:12.152Z,14.81
2018-03-07T06:51:40.839Z,15.02
2018-03-07T06:54:09.458Z,15.40
2018-03-07T06:56:38.930Z,15.35
2018-03-07T06:59:07.495Z,14.28
2018-03-07T07:01:36.945Z,14.86
2018-03-07T07:04:05.630Z,15.35
2018-03-07T07:06:34.251Z,15.95
2018-03-07T07:09:03.717Z,15.17
2018-03-07T07:11:32.918Z,15.01
2018-03-07T07:14:01.493Z,15.48
2018-03-07T07:16:30.189Z,15.51
2018-03-07T07:18:58.974Z,15.75
2018-03-07T07:21:27.660Z,15.74
2018-03-07T07:23:56.236Z,16.10
2018-03-07T07:26:24.971Z,16.34
2018-03-07T07:28:53.668Z,16.33
2018-03-07T07:31:23.305Z,15.83
2018-03-07T07:33:52.250Z,15.63
2018-03-07T07:36:21.037Z,15.86
2018-03-07T07:38:50.455Z,15.82
2018-03-07T07:41:20.048Z,16.80
2018-03-07T07:43:49.516Z,17.21
2018-03-07T07:46:18.300Z,16.36
2018-03-07T07:48:46.929Z,16.37
2018-03-07T07:51:16.287Z,16.69
2018-03-07T07:53:44.971Z,16.73
2018-03-07T07:56:13.766Z,16.32
2018-03-07T07:58:42.477Z,16.33
2018-03-07T08:01:11.238Z,16.19
2018-03-07T08:03:40.188Z,17.00
2018-03-07T08:06:08.917Z,16.42
2018-03-07T08:08:37.603Z,16.55
2018-03-07T08:11:06.542Z,16.37
2018-03-07T08:13:35.285Z,16.47
2018-03-07T08:16:03.928Z,16.06
2018-03-07T08:18:32.653Z,16.23
2018-03-07T08:21:01.339Z,16.31
2018-03-07T08:23:29.983Z,15.84
2018-03-07T08:25:58.711Z,17.07
2018-03-07T08:28:27.397Z,17.79
2018-03-07T08:30:56.083Z,16.98
2018-03-07T08:33:25.078Z,17.68
2018-03-07T08:35:53.696Z,16.12
2018-03-07T08:38:23.160Z,17.65
2018-03-07T08:40:51.982Z,17.46
2018-03-07T08:43:21.452Z,17.55
2018-03-07T08:45:50.039Z,16.81
2018-03-07T08:48:18.720Z,17.28
2018-03-07T08:50:47.269Z,17.36
2018-03-07T08:53:15.983Z,17.64
2018-03-07T08:55:44.715Z,18.31
2018-03-07T08:58:14.168Z,18.29
2018-03-07T09:00:42.801Z,18.95
2018-03-07T09:03:11.542Z,17.46
2018-03-07T09:05:40.225Z,17.98
2018-03-07T09:08:08.855Z,17.90
2018-03-07T09:10:38.472Z,17.94
2018-03-07T09:13:07.166Z,18.68
2018-03-07T09:15:35.759Z,17.85
2018-03-07T09:18:04.727Z,18.29
2018-03-07T09:20:34.183Z,18.08
2018-03-07T09:23:02.813Z,18.49
2018-03-07T09:25:32.279Z,18.09
2018-03-07T09:28:00.896Z,18.96
2018-03-07T09:30:30.349Z,19.05
2018-03-07T09:32:59.109Z,21.31
2018-03-07T09:35:27.834Z,21.58
2018-03-07T09:37:56.496Z,20.78
2018-03-07T09:40:25.313Z,20.15
2018-03-07T09:42:53.892Z,18.91
2018-03-07T09:45:22.525Z,19.88
2018-03-07T09:47:52.047Z,20.08
2018-03-07T09:50:20.772Z,20.08
2018-03-07T09:52:49.459Z,19.13
2018-03-07T09:55:18.244Z,20.25
2018-03-07T09:57:46.829Z,21.42
2018-03-07T10:00:15.519Z,19.22
2018-03-07T10:02:44.613Z,19.92
2018-03-07T10:05:13.294Z,21.08
2018-03-07T10:07:41.880Z,22.77
2018-03-07T10:10:10.764Z,22.32
2018-03-07T10:12:39.395Z,22.56
2018-03-07T10:15:08.861Z,23.17
2018-03-07T10:17:38.735Z,22.96
2018-03-07T10:20:07.463Z,23.71
2018-03-07T10:22:36.148Z,23.66
2018-03-07T10:25:04.931Z,22.92
2018-03-07T10:27:33.517Z,22.47
2018-03-07T10:30:03.224Z,23.16
2018-03-07T10:32:32.168Z,23.11
2018-03-07T10:35:00.903Z,22.99
2018-03-07T10:37:29.460Z,22.18
2018-03-07T10:39:58.274Z,23.13
2018-03-07T10:42:26.963Z,22.10
2018-03-07T10:44:55.646Z,21.88
2018-03-07T10:47:24.640Z,20.91
2018-03-07T10:49:53.318Z,22.79
2018-03-07T10:52:22.771Z,22.97
2018-03-07T10:54:51.501Z,21.92
2018-03-07T10:57:20.969Z,23.63
2018-03-07T10:59:49.540Z,23.80
2018-03-07T11:02:18.359Z,24.38
2018-03-07T11:04:47.023Z,23.20
2018-03-07T11:07:15.600Z,23.44
2018-03-07T11:09:44.494Z,22.46
2018-03-07T11:12:13.179Z,22.72
2018-03-07T11:14:41.825Z,24.31
2018-03-07T11:17:10.558Z,24.03
2018-03-07T11:19:39.193Z,24.22
2018-03-07T11:22:07.922Z,23.00
2018-03-07T11:24:36.872Z,23.63
2018-03-07T11:27:05.565Z,24.93
2018-03-07T11:29:34.286Z,23.83
2018-03-07T11:32:03.081Z,23.15
2018-03-07T11:34:32.469Z,23.64
2018-03-07T11:37:01.115Z,22.25
2018-03-07T11:39:30.577Z,23.53
2018-03-07T11:41:59.251Z,23.39
2018-03-07T11:44:27.937Z,25.47
2018-03-07T11:46:56.930Z,25.70
2018-03-07T11:49:25.620Z,26.15
2018-03-07T11:51:54.204Z,25.33
2018-03-07T11:54:22.939Z,23.75
2018-03-07T11:56:51.673Z,26.34
2018-03-07T11:59:20.360Z,25.72
2018-03-07T12:01:49.156Z,26.01
2018-03-07T12:04:17.887Z,25.69
2018-03-07T12:06:47.339Z,24.64
2018-03-07T12:09:16.138Z,23.12
2018-03-07T12:11:45.632Z,22.26
2018-03-07T12:14:14.343Z,22.62
2018-03-07T12:16:43.278Z,21.37
2018-03-07T12:19:12.001Z,21.83
2018-03-07T12:21:41.506Z,21.82
2018-03-07T12:24:10.600Z,23.31
2018-03-07T12:26:39.184Z,22.95
2018-03-07T12:29:07.760Z,23.28
2018-03-07T12:31:36.554Z,23.01
2018-03-07T12:34:05.341Z,22.31
2018-03-07T12:36:34.029Z,23.91
2018-03-07T12:39:03.166Z,23.67
2018-03-07T12:41:32.626Z,24.16
2018-03-07T12:44:01.213Z,24.87
2018-03-07T12:46:29.945Z,24.53
2018-03-07T12:48:59.359Z,23.56
2018-03-07T12:51:28.810Z,22.31
2018-03-07T12:53:57.775Z,22.41
2018-03-07T12:56:26.382Z,22.94
2018-03-07T12:58:55.007Z,22.83
2018-03-07T13:01:24.479Z,22.99
2018-03-07T13:03:53.041Z,22.81
2018-03-07T13:06:21.686Z,21.98
2018-03-07T13:08:51.162Z,22.30
2018-03-07T13:11:19.877Z,22.68
2018-03-07T13:13:49.341Z,22.87
2018-03-07T13:16:18.388Z,22.90
2018-03-07T13:18:47.117Z,22.82
2018-03-07T13:21:16.011Z,22.96
2018-03-07T13:23:44.896Z,22.47
2018-03-07T13:26:13.587Z,23.02
2018-03-07T13:28:42.270Z,23.62
2018-03-07T13:31:11.223Z,24.72
2018-03-07T13:33:39.945Z,24.45
2018-03-07T13:36:08.631Z,23.62
2018-03-07T13:38:37.525Z,23.54
2018-03-07T13:41:06.310Z,23.33
2018-03-07T13:43:34.897Z,24.17
2018-03-07T13:46:03.890Z,24.44
2018-03-07T13:48:32.576Z,23.69
2018-03-07T13:51:01.247Z,23.79
2018-03-07T13:53:29.948Z,24.25
2018-03-07T13:55:58.626Z,24.53
2018-03-07T13:58:27.372Z,25.00
2018-03-07T14:00:56.103Z,24.20
2018-03-07T14:03:24.758Z,24.34
2018-03-07T14:05:53.475Z,23.81
2018-03-07T14:08:22.295Z,24.99
2018-03-07T14:10:51.056Z,25.46
2018-03-07T14:13:19.730Z,24.62
2018-03-07T14:15:49.141Z,25.05
2018-03-07T14:18:17.825Z,25.18
2018-03-07T14:20:46.413Z,25.07
2018-03-07T14:23:15.017Z,24.87
2018-03-07T14:25:43.722Z,25.12
2018-03-07T14:28:13.184Z,25.16
2018-03-07T14:30:41.978Z,24.85
2018-03-07T14:33:10.664Z,25.39
2018-03-07T14:35:39.350Z,24.79
2018-03-07T14:38:08.135Z,25.15
2018-03-07T14:40:36.780Z,24.94
2018-03-07T14:43:05.508Z,24.40
2018-03-07T14:45:34.387Z,24.35
2018-03-07T14:48:03.086Z,24.40
2018-03-07T14:50:31.664Z,24.13
2018-03-07T14:53:00.558Z,25.18
2018-03-07T14:55:29.244Z,25.52
2018-03-07T14:57:57.882Z,25.96
2018-03-07T15:00:26.700Z,26.58
2018-03-07T15:02:55.369Z,26.37
2018-03-07T15:05:24.090Z,26.57
2018-03-07T15:07:53.009Z,26.03
2018-03-07T15:10:21.732Z,25.98
2018-03-07T15:12:50.367Z,26.55
2018-03-07T15:15:19.104Z,26.65
2018-03-07T15:17:47.753Z,26.47
2018-03-07T15:20:16.380Z,25.53
2018-03-07T15:22:45.161Z,25.81
2018-03-07T15:25:13.809Z,25.61
2018-03-07T15:27:42.533Z,24.68
2018-03-07T15:30:11.328Z,24.64
2018-03-07T15:32:40.014Z,24.26
2018-03-07T15:35:08.631Z,24.07
2018-03-07T15:37:38.101Z,23.69
2018-03-07T15:40:06.676Z,23.57
2018-03-07T15:42:35.229Z,23.81
2018-03-07T15:45:03.952Z,23.79
2018-03-07T15:47:32.491Z,23.26
2018-03-07T15:50:01.038Z,23.22
2018-03-07T15:52:29.907Z,23.04
2018-03-07T15:54:58.484Z,22.62
2018-03-07T15:57:27.179Z,22.41
2018-03-07T15:59:56.064Z,22.43
2018-03-07T16:02:24.617Z,22.01
2018-03-07T16:04:53.274Z,22.18
2018-03-07T16:07:22.737Z,22.19
2018-03-07T16:09:51.288Z,21.88
2018-03-07T16:12:19.848Z,21.34
2018-03-07T16:14:49.229Z,21.74
2018-03-07T16:17:18.665Z,21.30
2018-03-07T16:19:47.297Z,21.02
2018-03-07T16:22:16.080Z,20.19
2018-03-07T16:24:44.637Z,20.00
2018-03-07T16:27:13.313Z,19.33
2018-03-07T16:29:42.038Z,19.01
2018-03-07T16:32:10.602Z,19.27
2018-03-07T16:34:39.161Z,18.99
2018-03-07T16:37:07.835Z,19.01
2018-03-07T16:39:37.249Z,18.91
2018-03-07T16:42:06.591Z,19.06
2018-03-07T16:44:35.581Z,19.02
2018-03-07T16:47:04.940Z,19.07
2018-03-07T16:49:33.675Z,18.86
2018-03-07T16:52:02.419Z,18.88
2018-03-07T16:54:30.972Z,18.73
2018-03-07T16:56:59.732Z,18.66
2018-03-07T16:59:28.516Z,18.69
2018-03-07T17:01:57.106Z,18.47
2018-03-07T17:04:25.786Z,18.45
2018-03-07T17:06:54.783Z,18.16
2018-03-07T17:09:23.421Z,18.14
2018-03-07T17:11:52.158Z,18.32
2018-03-07T17:14:20.939Z,18.33
2018-03-07T17:16:49.529Z,18.53
2018-03-07T17:19:18.113Z,18.32
2018-03-07T17:21:47.304Z,18.02
2018-03-07T17:24:15.892Z,17.69
2018-03-07T17:26:44.576Z,17.55
2018-03-07T17:29:13.315Z,17.33
2018-03-07T17:31:42.047Z,17.40
2018-03-07T17:34:10.701Z,17.32
2018-03-07T17:36:39.419Z,16.99
2018-03-07T17:39:08.104Z,17.24
2018-03-07T17:41:36.791Z,17.46
2018-03-07T17:44:05.648Z,17.48
2018-03-07T17:46:34.266Z,17.19
2018-03-07T17:49:02.852Z,17.05
2018-03-07T17:51:31.549Z,17.01
2018-03-07T17:54:00.329Z,17.12
2018-03-07T17:56:29.014Z,17.14
2018-03-07T17:58:57.831Z,16.92
2018-03-07T18:01:27.246Z,16.97
2018-03-07T18:03:56.712Z,16.94
2018-03-07T18:06:25.492Z,16.86
2018-03-07T18:08:54.181Z,16.66
2018-03-07T18:11:22.816Z,16.47
2018-03-07T18:13:52.377Z,16.44
2018-03-07T18:16:21.061Z,17.00
2018-03-07T18:18:49.649Z,16.88
2018-03-07T18:21:19.420Z,16.65
2018-03-07T18:23:48.009Z,16.67
2018-03-07T18:26:16.693Z,16.71
2018-03-07T18:28:45.477Z,16.66
2018-03-07T18:31:14.163Z,16.60
2018-03-07T18:33:42.848Z,16.59
2018-03-07T18:36:11.644Z,16.72
2018-03-07T18:38:40.315Z,17.04
2018-03-07T18:41:09.016Z,16.92
2018-03-07T18:43:37.855Z,17.08
2018-03-07T18:46:07.575Z,17.00
2018-03-07T18:48:36.220Z,16.91
2018-03-07T18:51:04.955Z,16.89
2018-03-07T18:53:33.676Z,16.94
2018-03-07T18:56:02.316Z,16.72
2018-03-07T18:58:31.087Z,16.62
2018-03-07T19:01:00.551Z,17.01
2018-03-07T19:03:29.199Z,16.61
2018-03-07T19:05:59.969Z,16.64
2018-03-07T19:08:29.284Z,17.10
2018-03-07T19:10:58.702Z,17.03
2018-03-07T19:13:28.552Z,17.06
2018-03-07T19:15:57.237Z,16.98
2018-03-07T19:18:25.881Z,17.29
2018-03-07T19:20:54.973Z,16.99
2018-03-07T19:23:23.683Z,17.07
2018-03-07T19:25:52.364Z,17.01
2018-03-07T19:28:21.150Z,17.21
2018-03-07T19:30:50.567Z,17.36
2018-03-07T19:33:19.282Z,17.24
2018-03-07T19:35:48.931Z,16.93
2018-03-07T19:38:17.640Z,16.94
2018-03-07T19:40:46.267Z,15.32
2018-03-07T19:43:15.833Z,15.00
2018-03-07T19:45:44.474Z,13.72
2018-03-07T19:48:13.205Z,13.83
2018-03-07T19:50:42.136Z,14.22
2018-03-07T19:53:11.598Z,14.00
2018-03-07T19:55:40.384Z,13.74
2018-03-07T19:58:09.585Z,14.20
2018-03-07T20:00:38.136Z,13.29
2018-03-07T20:03:06.856Z,14.25
2018-03-07T20:05:35.768Z,14.81
2018-03-07T20:08:04.486Z,14.65
2018-03-07T20:10:33.935Z,14.05
2018-03-07T20:13:02.899Z,13.62
2018-03-07T20:15:31.614Z,14.74
2018-03-07T20:18:00.236Z,14.27
2018-03-07T20:20:29.701Z,14.53
2018-03-07T20:22:58.384Z,14.12
2018-03-07T20:25:27.071Z,14.18
2018-03-07T20:27:55.758Z,13.67
2018-03-07T20:30:24.343Z,13.31
2018-03-07T20:32:53.018Z,14.20
2018-03-07T20:35:21.760Z,14.21
2018-03-07T20:37:51.223Z,13.88
2018-03-07T20:40:19.896Z,14.17
2018-03-07T20:42:48.792Z,14.45
2018-03-07T20:45:17.382Z,14.43
2018-03-07T20:47:46.125Z,14.44
2018-03-07T20:50:14.850Z,14.56
2018-03-07T20:52:43.537Z,14.71
2018-03-07T20:55:12.179Z,14.39
2018-03-07T20:57:41.017Z,14.79
2018-03-07T21:00:09.597Z,14.78
2018-03-07T21:02:38.278Z,14.66
2018-03-07T21:05:07.425Z,15.10
2018-03-07T21:07:36.880Z,15.06
2018-03-07T21:10:05.564Z,14.96
2018-03-07T21:12:34.768Z,14.69
2018-03-07T21:15:03.454Z,14.81
2018-03-07T21:17:32.237Z,14.64
2018-03-07T21:20:01.279Z,14.21
2018-03-07T21:22:30.739Z,14.30
2018-03-07T21:24:59.326Z,14.14
2018-03-07T21:27:28.164Z,13.74
2018-03-07T21:29:56.854Z,14.08
2018-03-07T21:32:25.581Z,14.46
2018-03-07T21:34:54.564Z,14.46
2018-03-07T21:37:23.260Z,14.48
2018-03-07T21:39:51.947Z,14.08
2018-03-07T21:42:20.918Z,13.72
2018-03-07T21:44:49.625Z,13.93
2018-03-07T21:47:18.254Z,13.91
2018-03-07T21:49:48.116Z,13.99
2018-03-07T21:52:16.660Z,14.03
2018-03-07T21:54:46.211Z,14.04
2018-03-07T21:57:14.996Z,14.26
2018-03-07T21:59:43.692Z,14.75
2018-03-07T22:02:12.367Z,14.80
2018-03-07T22:04:41.164Z,14.80
2018-03-07T22:07:09.849Z,14.80
2018-03-07T22:09:38.514Z,14.41
2018-03-07T22:12:07.627Z,14.19
2018-03-07T22:14:36.212Z,13.77
2018-03-07T22:17:04.900Z,14.29
2018-03-07T22:19:33.861Z,14.06
2018-03-07T22:22:02.405Z,14.14
2018-03-07T22:24:31.185Z,14.12
2018-03-07T22:27:00.665Z,14.21
2018-03-07T22:29:29.349Z,14.12
2018-03-07T22:31:58.004Z,14.12
2018-03-07T22:34:26.993Z,14.10
2018-03-07T22:36:55.714Z,14.11
2018-03-07T22:39:24.382Z,14.19
2018-03-07T22:41:53.167Z,14.66
2018-03-07T22:44:21.873Z,14.57
2018-03-07T22:46:50.623Z,14.34
2018-03-07T22:49:19.566Z,13.97
2018-03-07T22:51:48.136Z,14.28
2018-03-07T22:54:16.825Z,14.15
2018-03-07T22:56:45.552Z,14.40
2018-03-07T22:59:15.017Z,14.45
2018-03-07T23:01:43.643Z,14.52
2018-03-07T23:04:13.105Z,14.62
2018-03-07T23:06:41.789Z,14.15
2018-03-07T23:09:10.473Z,14.31
2018-03-07T23:11:39.159Z,14.84
2018-03-07T23:14:07.804Z,14.81
2018-03-07T23:16:36.447Z,13.84
2018-03-07T23:19:05.216Z,13.25
2018-03-07T23:21:33.858Z,13.02
2018-03-07T23:24:02.588Z,13.30
2018-03-07T23:26:31.386Z,12.81
2018-03-07T23:29:00.112Z,11.78
2018-03-07T23:31:29.567Z,13.08
2018-03-07T23:33:58.522Z,12.63
2018-03-07T23:36:27.246Z,12.55
2018-03-07T23:38:55.938Z,13.18
2018-03-07T23:41:24.673Z,13.51
2018-03-07T23:43:54.126Z,12.98
2018-03-07T23:46:22.714Z,13.28
2018-03-07T23:48:51.805Z,12.78
2018-03-07T23:51:20.448Z,13.12
2018-03-07T23:53:49.177Z,12.91
2018-03-07T23:56:17.914Z,13.14
2018-03-07T23:58:46.647Z,13.69
